Time;durP1;ratioP1;P1;durP2;ratioP2;P2;SDS_P1;SDS_P2;PMS_P1;PMS_P2;Temp;Humidity;BMP_temperature;BMP_pressure;BME280_temperature;BME280_humidity;BME280_pressure;Samples;Min_cycle;Max_cycle;Signal;HPM_P1;HPM_P2
2022/01/21 00:00:27;;;;;;;10.90;3.90;;;1.90;85.20;;;;;;5052960;28;20188;-71
2022/01/21 00:02:53;;;;;;;9.63;3.20;;;1.80;84.90;;;;;;5053047;28;20204;-71
2022/01/21 00:05:21;;;;;;;8.23;3.30;;;1.80;84.90;;;;;;5051958;28;20176;-71
2022/01/21 00:07:47;;;;;;;8.52;3.10;;;1.80;84.90;;;;;;5052402;28;20530;-72
2022/01/21 00:10:13;;;;;;;8.48;3.47;;;1.80;85.20;;;;;;5051809;28;20180;-72
2022/01/21 00:12:39;;;;;;;11.77;3.72;;;1.80;85.00;;;;;;5051062;28;20239;-72
2022/01/21 00:15:07;;;;;;;8.03;3.07;;;1.70;85.20;;;;;;5050708;28;20169;-70
2022/01/21 00:17:33;;;;;;;17.63;3.67;;;1.70;85.00;;;;;;5051375;28;20462;-70
2022/01/21 00:30:56;;;;;;;8.68;3.33;;;1.70;85.20;;;;;;5093244;28;20672;-71
2022/01/21 00:33:22;;;;;;;8.63;3.67;;;1.70;84.70;;;;;;5093046;28;20179;-71
2022/01/21 00:35:48;;;;;;;5.80;2.97;;;1.70;84.60;;;;;;5092779;28;20203;-72
2022/01/21 00:38:14;;;;;;;5.90;3.73;;;1.80;84.90;;;;;;5093207;28;20183;-74
2022/01/21 00:40:40;;;;;;;7.28;3.10;;;1.80;84.60;;;;;;5092495;28;20244;-72
2022/01/21 00:43:21;;;;;;;9.97;3.43;;;1.80;84.30;;;;;;5101376;28;20242;-73
2022/01/21 00:45:48;;;;;;;10.13;3.30;;;1.90;84.30;;;;;;5104347;28;20429;-72
2022/01/21 00:48:15;;;;;;;6.22;2.95;;;1.90;83.80;;;;;;5108503;28;20707;-71
2022/01/21 00:50:41;;;;;;;6.25;3.10;;;1.90;84.00;;;;;;5102710;28;20171;-70
2022/01/21 00:53:07;;;;;;;9.30;3.93;;;1.90;83.70;;;;;;5093126;28;20560;-70
2022/01/21 00:55:33;;;;;;;8.63;2.93;;;1.90;83.60;;;;;;5092975;28;20576;-72
2022/01/21 00:57:58;;;;;;;13.17;3.67;;;1.90;83.70;;;;;;5094743;28;20178;-72
2022/01/21 01:00:24;;;;;;;14.23;3.77;;;1.90;83.60;;;;;;5093171;28;20172;-70
2022/01/21 01:02:50;;;;;;;6.30;3.20;;;1.90;83.40;;;;;;5093359;28;20780;-70
2022/01/21 01:05:16;;;;;;;8.80;3.00;;;1.90;83.60;;;;;;5092458;28;20167;-71
2022/01/21 01:07:41;;;;;;;11.70;3.33;;;1.90;83.40;;;;;;5091467;28;20194;-71
2022/01/21 01:10:13;;;;;;;8.40;3.80;;;1.90;83.30;;;;;;5093208;28;20179;-72
2022/01/21 01:20:45;;;;;;;6.90;2.80;;;2.00;83.10;;;;;;5092815;28;20559;-70
2022/01/21 01:23:48;;;;;;;7.23;2.90;;;2.00;82.80;;;;;;5092720;28;20179;-72
2022/01/21 01:28:43;;;;;;;7.47;2.85;;;1.90;83.10;;;;;;5092445;28;20217;-70
2022/01/21 01:31:09;;;;;;;6.50;2.80;;;1.90;82.70;;;;;;5092566;28;20205;-72
2022/01/21 01:33:38;;;;;;;8.50;3.83;;;1.90;83.10;;;;;;5092549;28;20312;-70
2022/01/21 01:36:06;;;;;;;11.02;3.22;;;1.90;83.30;;;;;;5091945;28;20540;-71
2022/01/21 01:41:04;;;;;;;7.28;2.95;;;1.90;83.10;;;;;;5092797;28;20179;-72
2022/01/21 01:51:27;;;;;;;12.32;4.60;;;2.00;83.10;;;;;;5092927;28;20252;-71
2022/01/21 01:53:56;;;;;;;10.50;3.17;;;2.00;83.40;;;;;;5097411;28;20179;-71
2022/01/21 01:56:29;;;;;;;8.85;3.00;;;1.90;83.60;;;;;;5101011;28;20257;-70
2022/01/21 01:58:55;;;;;;;14.27;3.05;;;1.90;84.00;;;;;;5100721;28;20170;-70
2022/01/21 02:01:21;;;;;;;6.70;2.73;;;1.90;83.70;;;;;;5101781;28;20532;-72
2022/01/21 02:03:46;;;;;;;8.33;3.47;;;2.00;83.80;;;;;;5099163;28;20893;-71
2022/01/21 02:06:12;;;;;;;8.93;3.07;;;2.00;84.00;;;;;;5099574;28;20445;-71
2022/01/21 02:08:38;;;;;;;6.80;3.30;;;2.00;83.40;;;;;;5100031;28;20201;-72
2022/01/21 02:11:04;;;;;;;6.30;2.87;;;1.90;83.70;;;;;;5102103;28;20199;-72
2022/01/21 02:13:34;;;;;;;4.33;2.90;;;1.90;83.80;;;;;;5099798;28;20717;-71
2022/01/21 02:16:17;;;;;;;8.23;3.40;;;2.00;84.00;;;;;;5101956;28;20610;-71
2022/01/21 02:21:31;;;;;;;11.07;3.58;;;1.80;84.90;;;;;;5102915;28;20204;-72
2022/01/21 02:23:59;;;;;;;16.92;4.50;;;1.80;85.30;;;;;;5103808;28;20180;-70
2022/01/21 02:26:25;;;;;;;13.52;3.50;;;1.80;85.50;;;;;;5103095;28;20592;-70
2022/01/21 02:28:53;;;;;;;6.45;3.25;;;1.70;85.50;;;;;;5106865;28;20175;-71
2022/01/21 02:31:19;;;;;;;9.73;3.72;;;1.70;86.20;;;;;;5107579;28;20176;-70
2022/01/21 02:33:45;;;;;;;7.53;3.07;;;1.70;86.20;;;;;;5107295;28;20191;-71
2022/01/21 02:36:11;;;;;;;7.95;3.47;;;1.70;86.30;;;;;;5103962;28;20545;-71
2022/01/21 02:38:36;;;;;;;11.87;3.80;;;1.80;86.50;;;;;;5098493;28;20363;-72
2022/01/21 02:41:02;;;;;;;5.60;3.10;;;1.80;86.30;;;;;;5095948;28;20175;-71
2022/01/21 02:43:28;;;;;;;14.90;3.67;;;1.70;86.30;;;;;;5097039;28;20179;-71
2022/01/21 02:45:54;;;;;;;9.63;3.10;;;1.70;86.30;;;;;;5096413;28;20543;-71
2022/01/21 02:48:21;;;;;;;14.30;3.90;;;1.70;86.30;;;;;;5094511;28;20266;-70
2022/01/21 02:50:47;;;;;;;6.47;3.95;;;1.60;86.60;;;;;;5094370;28;20518;-71
2022/01/21 02:55:48;;;;;;;10.10;3.13;;;1.50;86.20;;;;;;5095605;28;20199;-72
2022/01/21 02:58:13;;;;;;;7.37;4.37;;;1.60;86.30;;;;;;5095684;28;20186;-71
2022/01/21 03:00:39;;;;;;;14.07;3.20;;;1.60;86.30;;;;;;5096351;28;20282;-70
2022/01/21 03:03:08;;;;;;;15.27;3.63;;;1.70;86.30;;;;;;5097140;28;20179;-70
2022/01/21 03:05:35;;;;;;;5.63;2.85;;;1.80;86.00;;;;;;5098905;28;20219;-70
2022/01/21 03:08:02;;;;;;;6.88;3.35;;;1.60;85.20;;;;;;5103950;28;20908;-71
2022/01/21 03:10:30;;;;;;;16.55;3.85;;;1.60;85.50;;;;;;5097225;28;20198;-70
2022/01/21 03:12:56;;;;;;;7.50;3.15;;;1.70;85.50;;;;;;5097174;28;20596;-70
2022/01/21 03:15:21;;;;;;;7.30;4.03;;;1.70;85.30;;;;;;5095381;28;20209;-71
2022/01/21 03:17:47;;;;;;;10.30;3.13;;;1.70;85.20;;;;;;5094006;28;20557;-73
2022/01/21 03:20:13;;;;;;;9.93;3.27;;;1.80;85.20;;;;;;5094379;28;20237;-72
2022/01/21 03:22:40;;;;;;;10.98;3.75;;;1.80;84.60;;;;;;5095020;28;20171;-72
2022/01/21 03:25:07;;;;;;;12.93;3.80;;;1.80;84.70;;;;;;5093592;28;20203;-73
2022/01/21 03:27:34;;;;;;;7.03;3.35;;;1.70;84.90;;;;;;5094572;28;20290;-72
2022/01/21 03:30:02;;;;;;;6.40;2.83;;;1.70;85.00;;;;;;5094446;28;20240;-72
2022/01/21 03:32:28;;;;;;;11.98;3.40;;;1.80;85.20;;;;;;5094854;28;20179;-72
2022/01/21 03:34:54;;;;;;;8.23;3.33;;;1.80;85.00;;;;;;5093068;28;20187;-73
2022/01/21 03:37:19;;;;;;;7.40;4.20;;;1.80;85.20;;;;;;5094317;28;20207;-71
2022/01/21 03:39:45;;;;;;;8.40;3.20;;;1.70;85.00;;;;;;5094640;28;20190;-71
2022/01/21 03:42:11;;;;;;;9.23;3.37;;;1.60;85.20;;;;;;5094636;28;20773;-71
2022/01/21 03:44:37;;;;;;;9.70;3.30;;;1.60;85.70;;;;;;5094635;28;20291;-71
2022/01/21 03:47:03;;;;;;;8.45;3.45;;;1.60;85.70;;;;;;5093440;28;20210;-72
2022/01/21 03:49:36;;;;;;;11.77;3.38;;;1.60;85.90;;;;;;5092918;28;20649;-71
2022/01/21 03:52:03;;;;;;;19.15;4.00;;;1.50;85.90;;;;;;5093841;28;20195;-71
2022/01/21 03:54:28;;;;;;;10.00;4.22;;;1.50;85.90;;;;;;5094417;28;20180;-71
2022/01/21 03:56:54;;;;;;;6.30;3.20;;;1.50;86.00;;;;;;5093917;28;20256;-72
2022/01/21 03:59:20;;;;;;;11.00;3.33;;;1.60;86.20;;;;;;5093568;28;20172;-72
2022/01/21 04:01:45;;;;;;;10.37;3.40;;;1.60;85.90;;;;;;5093669;28;20629;-71
2022/01/21 04:04:11;;;;;;;11.90;3.30;;;1.60;86.20;;;;;;5093662;28;20175;-71
2022/01/21 04:06:37;;;;;;;10.43;4.03;;;1.60;86.00;;;;;;5093213;28;20198;-71
2022/01/21 04:09:03;;;;;;;6.50;3.27;;;1.60;85.90;;;;;;5094545;28;20179;-72
2022/01/21 04:11:29;;;;;;;19.17;3.58;;;1.60;85.70;;;;;;5094305;28;20175;-72
2022/01/21 04:13:55;;;;;;;10.53;3.80;;;1.50;85.50;;;;;;5093505;28;20243;-71
2022/01/21 04:16:22;;;;;;;12.73;4.75;;;1.50;85.90;;;;;;5091286;28;20203;-70
2022/01/21 04:18:47;;;;;;;11.23;3.80;;;1.40;85.90;;;;;;5092922;28;20172;-71
2022/01/21 04:21:13;;;;;;;12.77;3.90;;;1.40;86.20;;;;;;5092693;28;20555;-72
2022/01/21 04:23:42;;;;;;;13.13;4.43;;;1.40;86.30;;;;;;5092914;28;20201;-71
2022/01/21 04:26:08;;;;;;;5.03;3.28;;;1.40;86.30;;;;;;5092585;28;20767;-72
2022/01/21 04:28:34;;;;;;;11.10;4.03;;;1.40;85.90;;;;;;5092693;28;20258;-71
2022/01/21 04:31:00;;;;;;;6.90;3.40;;;1.40;86.30;;;;;;5092766;28;20245;-72
2022/01/21 04:33:25;;;;;;;12.13;3.87;;;1.30;86.30;;;;;;5091891;28;20584;-72
2022/01/21 04:35:51;;;;;;;7.90;3.60;;;1.30;86.50;;;;;;5092420;28;20195;-72
2022/01/21 04:38:21;;;;;;;14.37;4.63;;;1.40;86.60;;;;;;5092479;28;20199;-72
2022/01/21 04:40:54;;;;;;;22.55;4.22;;;1.40;86.60;;;;;;5092632;28;20601;-69
2022/01/21 04:48:48;;;;;;;5.70;4.10;;;1.50;86.20;;;;;;5094634;28;20262;-72
2022/01/21 04:51:17;;;;;;;10.13;4.20;;;1.40;86.20;;;;;;5093132;28;20841;-72
2022/01/21 04:53:44;;;;;;;9.43;3.63;;;1.30;86.50;;;;;;5092415;28;20197;-72
2022/01/21 04:56:10;;;;;;;7.70;3.60;;;1.30;86.80;;;;;;5092963;28;20652;-72
2022/01/21 04:58:38;;;;;;;10.53;4.40;;;1.40;86.80;;;;;;5093223;28;20171;-70
2022/01/21 05:01:06;;;;;;;11.02;3.92;;;1.30;86.50;;;;;;5094126;28;20943;-71
2022/01/21 05:03:32;;;;;;;14.25;4.38;;;1.30;86.60;;;;;;5093809;28;20190;-70
2022/01/21 05:06:00;;;;;;;8.40;4.25;;;1.30;87.00;;;;;;5092790;28;20206;-72
2022/01/21 05:08:41;;;;;;;13.27;3.75;;;1.30;87.00;;;;;;5092796;28;20238;-71
2022/01/21 05:11:07;;;;;;;14.38;4.13;;;1.30;86.90;;;;;;5092504;28;20222;-71
2022/01/21 05:13:39;;;;;;;10.20;4.30;;;1.30;87.00;;;;;;5092175;28;20622;-72
2022/01/21 05:17:00;;;;;;;13.98;4.55;;;1.30;87.00;;;;;;5091783;28;20234;-71
2022/01/21 05:18:55;;;;;;;11.35;4.32;;;1.30;86.80;;;;;;5077834;28;20191;-75
2022/01/21 05:21:20;;;;;;;14.82;5.28;;;1.30;87.00;;;;;;5092088;28;20172;-70
2022/01/21 05:23:46;;;;;;;13.80;4.40;;;1.40;86.90;;;;;;5091533;28;20171;-72
2022/01/21 05:26:12;;;;;;;12.93;4.57;;;1.40;86.90;;;;;;5091932;28;20561;-71
2022/01/21 05:28:38;;;;;;;12.50;4.00;;;1.40;86.90;;;;;;5092091;28;20223;-71
2022/01/21 05:31:04;;;;;;;9.70;4.50;;;1.50;86.90;;;;;;5092089;28;20258;-72
2022/01/21 05:33:30;;;;;;;11.50;4.40;;;1.50;86.60;;;;;;5092258;28;20649;-71
2022/01/21 05:35:56;;;;;;;9.10;4.13;;;1.40;86.50;;;;;;5092365;28;20829;-71
2022/01/21 05:38:24;;;;;;;11.33;3.90;;;1.40;86.50;;;;;;5091868;28;20196;-71
2022/01/21 05:40:51;;;;;;;11.65;4.72;;;1.40;86.50;;;;;;5090614;28;20273;-70
2022/01/21 05:43:17;;;;;;;10.43;5.35;;;1.40;86.50;;;;;;5091314;28;20195;-72
2022/01/21 05:48:27;;;;;;;12.95;4.80;;;1.40;86.80;;;;;;5093117;28;20182;-72
2022/01/21 05:50:52;;;;;;;10.53;4.77;;;1.40;86.60;;;;;;5093142;28;20179;-72
2022/01/21 05:53:18;;;;;;;16.17;5.43;;;1.40;86.50;;;;;;5095747;28;20183;-72
2022/01/21 05:55:44;;;;;;;10.07;4.70;;;1.40;86.80;;;;;;5096166;28;20207;-72
2022/01/21 05:58:14;;;;;;;12.03;5.17;;;1.40;86.80;;;;;;5092017;28;20300;-71
2022/01/21 06:00:42;;;;;;;13.98;4.88;;;1.40;86.80;;;;;;5092232;28;20181;-71
2022/01/21 06:03:08;;;;;;;8.13;4.32;;;1.50;86.90;;;;;;5091795;28;20174;-72
2022/01/21 06:05:34;;;;;;;12.80;4.90;;;1.50;86.60;;;;;;5091596;28;20175;-72
2022/01/21 06:08:03;;;;;;;10.23;4.37;;;1.50;86.50;;;;;;5091830;28;20212;-71
2022/01/21 06:10:30;;;;;;;15.95;5.60;;;1.50;86.20;;;;;;5091759;28;20251;-72
2022/01/21 06:12:56;;;;;;;27.83;5.03;;;1.50;86.80;;;;;;5091597;28;20167;-72
2022/01/21 06:15:23;;;;;;;11.18;4.90;;;1.50;86.50;;;;;;5091115;28;20271;-70
2022/01/21 06:17:48;;;;;;;8.75;4.65;;;1.50;86.50;;;;;;5091460;28;20191;-72
2022/01/21 06:20:14;;;;;;;14.40;5.13;;;1.50;86.60;;;;;;5091582;28;20174;-71
2022/01/21 06:22:40;;;;;;;7.97;4.10;;;1.50;86.80;;;;;;5090784;28;20202;-70
2022/01/21 06:25:06;;;;;;;16.60;4.80;;;1.60;86.00;;;;;;5091329;28;20928;-71
2022/01/21 06:27:34;;;;;;;10.32;4.57;;;1.60;85.50;;;;;;5091634;28;20605;-72
2022/01/21 06:30:00;;;;;;;12.95;4.68;;;1.60;85.60;;;;;;5091353;28;20171;-72
2022/01/21 06:32:26;;;;;;;12.27;4.70;;;1.60;85.60;;;;;;5091571;28;20324;-70
2022/01/21 06:34:52;;;;;;;11.97;4.83;;;1.70;85.60;;;;;;5092426;28;20185;-71
2022/01/21 06:37:17;;;;;;;10.27;4.40;;;1.70;85.50;;;;;;5092579;28;20560;-71
2022/01/21 06:39:43;;;;;;;14.63;4.50;;;1.50;85.70;;;;;;5091883;28;20167;-73
2022/01/21 06:42:09;;;;;;;14.03;4.67;;;1.50;86.00;;;;;;5090877;28;20175;-72
2022/01/21 06:44:35;;;;;;;11.73;4.83;;;1.60;86.20;;;;;;5091780;28;20421;-72
2022/01/21 06:47:01;;;;;;;18.87;5.57;;;1.50;85.90;;;;;;5091566;28;20444;-72
2022/01/21 06:49:36;;;;;;;15.63;5.03;;;1.50;86.30;;;;;;5091962;28;20634;-73
2022/01/21 06:52:01;;;;;;;10.50;4.47;;;1.50;86.50;;;;;;5086831;28;20202;-70
2022/01/21 06:54:27;;;;;;;13.07;5.07;;;1.50;86.50;;;;;;5093033;28;20214;-70
2022/01/21 06:56:53;;;;;;;14.93;6.63;;;1.60;86.30;;;;;;5084673;28;20219;-72
2022/01/21 06:59:18;;;;;;;16.73;5.47;;;1.60;86.50;;;;;;5094151;28;20186;-72
2022/01/21 07:01:44;;;;;;;13.20;5.70;;;1.50;86.20;;;;;;5095384;28;20194;-71
2022/01/21 07:04:10;;;;;;;20.57;5.80;;;1.40;86.30;;;;;;5094134;28;20175;-71
2022/01/21 07:06:36;;;;;;;17.80;6.83;;;1.50;86.30;;;;;;5093700;28;20203;-71
2022/01/21 07:09:02;;;;;;;13.80;5.20;;;1.40;86.50;;;;;;5100251;28;20645;-71
2022/01/21 07:11:27;;;;;;;14.40;5.35;;;1.40;86.80;;;;;;5102084;28;20249;-73
2022/01/21 07:13:53;;;;;;;13.70;4.83;;;1.50;86.80;;;;;;5099156;28;20183;-71
2022/01/21 07:16:19;;;;;;;10.13;5.00;;;1.50;86.50;;;;;;5094197;28;20293;-73
2022/01/21 07:18:45;;;;;;;13.38;4.80;;;1.50;86.50;;;;;;5095086;28;20598;-72
2022/01/21 07:21:11;;;;;;;12.03;5.10;;;1.50;86.30;;;;;;5093759;28;20214;-71
2022/01/21 07:23:37;;;;;;;14.10;5.00;;;1.50;86.20;;;;;;5093676;28;20429;-72
2022/01/21 07:26:05;;;;;;;11.73;6.07;;;1.50;86.50;;;;;;5093938;28;20848;-72
2022/01/21 07:28:33;;;;;;;9.82;4.93;;;1.50;86.80;;;;;;5093589;28;20226;-70
2022/01/21 07:31:00;;;;;;;12.35;5.10;;;1.50;86.90;;;;;;5091378;28;20186;-72
2022/01/21 07:33:25;;;;;;;18.90;5.60;;;1.60;86.80;;;;;;5093490;28;20190;-71
2022/01/21 07:35:51;;;;;;;12.50;5.10;;;1.60;85.90;;;;;;5093069;28;20203;-73
2022/01/21 07:38:17;;;;;;;9.17;5.13;;;1.40;85.70;;;;;;5093539;28;20190;-72
2022/01/21 07:40:43;;;;;;;10.77;4.70;;;1.50;86.20;;;;;;5093733;28;20175;-73
2022/01/21 07:43:09;;;;;;;12.48;5.78;;;1.50;86.20;;;;;;5093587;28;20555;-73
2022/01/21 07:45:35;;;;;;;19.48;6.05;;;1.60;86.20;;;;;;5093125;28;20211;-73
2022/01/21 07:48:03;;;;;;;13.93;5.25;;;1.50;85.60;;;;;;5092002;28;20209;-72
2022/01/21 07:50:29;;;;;;;16.13;6.40;;;1.50;85.90;;;;;;5092175;28;20588;-72
2022/01/21 07:52:55;;;;;;;11.97;5.90;;;1.60;86.00;;;;;;5093127;28;20183;-73
2022/01/21 07:55:21;;;;;;;18.43;6.10;;;1.50;86.00;;;;;;5093128;28;20572;-73
2022/01/21 07:57:46;;;;;;;12.03;6.20;;;1.60;86.20;;;;;;5093305;28;20275;-72
2022/01/21 08:00:13;;;;;;;14.93;6.60;;;1.50;86.00;;;;;;5094507;28;20425;-72
2022/01/21 08:02:38;;;;;;;14.02;6.80;;;1.60;85.90;;;;;;5096117;28;20217;-73
2022/01/21 08:05:05;;;;;;;13.70;6.70;;;1.60;85.70;;;;;;5096258;28;20550;-71
2022/01/21 08:07:31;;;;;;;19.77;6.95;;;1.60;85.70;;;;;;5094331;28;20285;-72
2022/01/21 08:09:57;;;;;;;15.70;6.47;;;1.60;85.30;;;;;;5094228;28;20239;-73
2022/01/21 08:12:22;;;;;;;12.70;5.27;;;1.70;85.30;;;;;;5094488;28;20769;-73
2022/01/21 08:14:48;;;;;;;11.40;5.60;;;1.70;85.20;;;;;;5094267;28;20183;-71
2022/01/21 08:17:14;;;;;;;12.47;6.20;;;1.70;84.70;;;;;;5093330;28;20215;-72
2022/01/21 08:19:40;;;;;;;15.40;5.67;;;1.70;84.70;;;;;;5093126;28;20190;-72
2022/01/21 08:22:06;;;;;;;14.83;7.90;;;1.80;84.60;;;;;;5093292;28;20178;-72
2022/01/21 08:24:31;;;;;;;14.20;5.80;;;1.80;84.30;;;;;;5092260;28;20911;-71
2022/01/21 08:26:57;;;;;;;15.63;6.03;;;1.80;84.10;;;;;;5091168;28;20211;-72
2022/01/21 08:29:23;;;;;;;17.30;6.23;;;1.90;83.70;;;;;;5093636;28;20244;-72
2022/01/21 08:31:49;;;;;;;15.63;7.60;;;1.90;83.80;;;;;;5098053;28;20182;-71
2022/01/21 08:34:29;;;;;;;12.77;5.67;;;2.00;83.30;;;;;;5102220;28;20183;-73
2022/01/21 08:36:54;;;;;;;13.93;6.10;;;2.10;83.40;;;;;;5090541;28;20239;-73
2022/01/21 08:39:41;;;;;;;15.60;6.30;;;2.20;83.00;;;;;;5089019;28;20179;-72
2022/01/21 08:42:19;;;;;;;15.13;6.50;;;2.10;82.10;;;;;;5078452;28;20180;-73
2022/01/21 08:44:56;;;;;;;12.02;5.82;;;2.10;81.90;;;;;;5092765;28;20186;-74
2022/01/21 08:47:25;;;;;;;16.92;6.35;;;2.10;81.90;;;;;;5091201;28;20241;-73
2022/01/21 08:49:51;;;;;;;14.98;5.55;;;2.10;82.10;;;;;;5090976;28;20175;-73
2022/01/21 08:52:22;;;;;;;11.73;5.63;;;2.00;82.40;;;;;;5091543;28;20184;-72
2022/01/21 08:54:49;;;;;;;12.55;6.03;;;2.20;82.10;;;;;;5092537;28;20194;-73
2022/01/21 08:57:19;;;;;;;17.08;7.20;;;2.10;81.90;;;;;;5092038;28;20207;-71
2022/01/21 08:59:46;;;;;;;17.33;7.68;;;2.20;82.10;;;;;;5091802;28;20194;-73
2022/01/21 09:02:12;;;;;;;22.30;7.70;;;2.20;82.10;;;;;;5091599;28;20221;-73
2022/01/21 09:04:38;;;;;;;19.60;6.70;;;2.20;82.40;;;;;;5092440;28;20183;-73
2022/01/21 09:07:25;;;;;;;14.27;7.00;;;2.30;81.80;;;;;;5091554;28;20203;-72
2022/01/21 09:10:02;;;;;;;15.88;6.63;;;2.10;81.40;;;;;;5091239;28;20289;-73
2022/01/21 09:12:29;;;;;;;15.45;6.90;;;2.20;82.10;;;;;;5091077;28;20266;-73
2022/01/21 09:14:55;;;;;;;17.40;6.20;;;2.30;81.80;;;;;;5090370;28;20179;-72
2022/01/21 09:17:20;;;;;;;16.60;7.17;;;2.30;81.40;;;;;;5086814;28;20275;-72
2022/01/21 09:19:46;;;;;;;14.33;6.00;;;2.30;81.70;;;;;;5091947;28;20175;-72
2022/01/21 09:22:12;;;;;;;11.57;7.00;;;2.30;81.40;;;;;;5091305;28;20182;-73
2022/01/21 09:24:38;;;;;;;22.90;6.60;;;2.40;81.40;;;;;;5091992;28;20224;-71
2022/01/21 09:27:05;;;;;;;13.30;6.60;;;2.50;81.70;;;;;;5091474;28;20445;-73
2022/01/21 09:29:31;;;;;;;18.73;6.53;;;2.50;80.90;;;;;;5091319;28;20207;-74
2022/01/21 09:31:57;;;;;;;15.65;6.90;;;2.30;80.80;;;;;;5091201;28;20175;-72
2022/01/21 09:34:25;;;;;;;19.25;7.70;;;2.30;81.40;;;;;;5091344;28;20228;-73
2022/01/21 09:36:51;;;;;;;17.42;6.82;;;2.30;81.50;;;;;;5090871;28;20222;-72
2022/01/21 09:39:17;;;;;;;17.38;7.20;;;2.30;81.70;;;;;;5091032;28;20195;-71
2022/01/21 09:41:43;;;;;;;14.30;6.70;;;2.20;81.40;;;;;;5091479;28;20209;-73
2022/01/21 09:44:19;;;;;;;17.40;6.60;;;2.30;81.70;;;;;;5091142;28;20175;-72
2022/01/21 09:46:49;;;;;;;17.98;6.75;;;2.40;81.70;;;;;;5089967;28;20509;-73
2022/01/21 09:51:55;;;;;;;20.10;7.03;;;2.70;80.20;;;;;;5090981;28;20190;-72
2022/01/21 09:54:22;;;;;;;12.30;5.70;;;2.70;79.70;;;;;;5091135;28;20190;-71
2022/01/21 09:56:48;;;;;;;11.57;6.05;;;2.80;79.60;;;;;;5090022;28;20280;-72
2022/01/21 09:59:19;;;;;;;13.40;5.65;;;2.90;77.60;;;;;;5091328;28;20175;-70
2022/01/21 10:01:51;;;;;;;13.38;6.30;;;3.00;77.80;;;;;;5098482;28;20197;-71
2022/01/21 10:04:19;;;;;;;16.88;6.03;;;3.10;77.60;;;;;;5092933;28;20267;-72
2022/01/21 10:06:46;;;;;;;12.23;6.72;;;3.00;77.40;;;;;;5088844;28;20207;-72
2022/01/21 10:09:15;;;;;;;14.38;5.80;;;3.00;77.70;;;;;;5089978;28;20175;-71
2022/01/21 10:11:46;;;;;;;12.55;6.35;;;3.00;78.00;;;;;;5092072;28;20612;-72
2022/01/21 10:14:12;;;;;;;16.70;6.50;;;3.10;77.80;;;;;;5088841;28;20184;-71
2022/01/21 10:16:38;;;;;;;16.17;6.60;;;3.20;77.10;;;;;;5088900;28;20219;-72
2022/01/21 10:19:07;;;;;;;14.83;5.90;;;3.20;77.10;;;;;;5095313;28;20178;-71
2022/01/21 10:21:39;;;;;;;20.10;6.63;;;3.40;76.70;;;;;;5095448;28;20175;-71
2022/01/21 10:24:10;;;;;;;16.27;5.68;;;3.30;76.10;;;;;;5092002;28;20457;-70
2022/01/21 10:26:46;;;;;;;12.57;6.50;;;3.30;76.20;;;;;;5095397;28;20611;-71
2022/01/21 10:29:13;;;;;;;17.85;6.82;;;3.10;76.40;;;;;;5094004;28;20236;-72
2022/01/21 10:31:53;;;;;;;18.03;7.03;;;3.20;76.70;;;;;;5098147;28;20179;-71
2022/01/21 10:34:46;;;;;;;16.80;6.53;;;3.10;76.80;;;;;;5101810;28;20432;-72
2022/01/21 10:37:41;;;;;;;13.63;5.70;;;3.00;77.30;;;;;;5091996;28;20223;-72
2022/01/21 10:40:10;;;;;;;16.88;6.63;;;3.00;77.70;;;;;;4999721;28;20425;-72
2022/01/21 10:42:47;;;;;;;16.95;5.45;;;3.00;77.80;;;;;;5014110;28;20214;-72
2022/01/21 10:45:13;;;;;;;18.35;7.60;;;3.00;77.70;;;;;;4991446;28;20205;-71
2022/01/21 10:47:47;;;;;;;16.13;6.37;;;2.90;78.10;;;;;;4996326;28;20201;-73
2022/01/21 10:50:14;;;;;;;13.57;6.10;;;2.90;78.60;;;;;;5011978;28;20911;-71
2022/01/21 10:52:45;;;;;;;13.17;6.27;;;3.00;78.10;;;;;;5011594;28;20201;-72
2022/01/21 10:55:38;;;;;;;16.57;6.37;;;2.90;77.80;;;;;;5010698;28;20802;-70
2022/01/21 10:58:09;;;;;;;17.25;6.20;;;3.00;78.00;;;;;;5011100;28;20428;-73
2022/01/21 11:00:36;;;;;;;12.85;5.15;;;3.10;77.40;;;;;;5011245;28;20212;-71
2022/01/21 11:03:11;;;;;;;13.63;5.60;;;3.10;77.10;;;;;;5011438;28;20205;-70
2022/01/21 11:05:41;;;;;;;16.80;6.07;;;3.10;77.00;;;;;;5010570;28;21012;-72
2022/01/21 11:08:11;;;;;;;18.88;6.03;;;3.30;77.00;;;;;;5013164;28;20182;-72
2022/01/21 11:10:40;;;;;;;7.03;4.53;;;3.40;76.50;;;;;;5013210;28;20210;-71
2022/01/21 11:13:20;;;;;;;13.77;4.93;;;3.50;76.10;;;;;;5013436;28;20190;-71
2022/01/21 11:15:57;;;;;;;11.23;5.32;;;3.40;75.20;;;;;;5027707;28;20193;-72
2022/01/21 11:18:25;;;;;;;13.77;6.23;;;3.50;75.70;;;;;;5094250;28;20650;-73
2022/01/21 11:21:04;;;;;;;12.00;5.13;;;3.40;74.90;;;;;;5094006;28;20417;-73
2022/01/21 11:23:30;;;;;;;9.00;4.70;;;3.40;75.50;;;;;;5090494;28;20195;-73
2022/01/21 11:26:00;;;;;;;15.13;5.93;;;3.40;74.90;;;;;;5093336;28;20254;-73
2022/01/21 11:28:26;;;;;;;12.30;6.45;;;3.30;74.90;;;;;;5092386;28;20278;-73
2022/01/21 11:30:54;;;;;;;11.77;5.25;;;3.30;75.20;;;;;;5094210;28;20180;-72
2022/01/21 11:33:22;;;;;;;9.85;4.90;;;3.20;74.90;;;;;;5091919;28;20186;-73
2022/01/21 11:35:49;;;;;;;10.02;4.55;;;3.30;75.40;;;;;;5093448;28;20191;-71
2022/01/21 11:38:17;;;;;;;15.20;5.80;;;3.40;74.50;;;;;;5094054;28;20206;-73
2022/01/21 11:40:43;;;;;;;20.50;6.07;;;3.30;74.60;;;;;;5093890;28;20179;-74
2022/01/21 11:43:11;;;;;;;14.60;5.07;;;3.20;74.90;;;;;;5093482;28;20193;-73
2022/01/21 11:50:49;;;;;;;10.88;3.78;;;3.60;73.60;;;;;;5094026;28;20198;-73
2022/01/21 11:53:35;;;;;;;16.38;4.63;;;3.60;73.00;;;;;;5094696;28;20558;-71
2022/01/21 11:56:06;;;;;;;8.98;3.70;;;3.50;72.70;;;;;;5088938;28;20219;-72
2022/01/21 11:58:32;;;;;;;10.98;3.85;;;3.40;73.20;;;;;;5094799;28;20215;-71
2022/01/21 12:00:58;;;;;;;14.10;3.90;;;3.40;73.50;;;;;;5093841;28;20744;-71
2022/01/21 12:03:24;;;;;;;8.70;3.83;;;3.40;73.00;;;;;;5099102;28;20524;-73
2022/01/21 12:05:50;;;;;;;9.20;3.83;;;3.30;73.60;;;;;;5095899;28;20262;-72
2022/01/21 12:08:49;;;;;;;9.35;3.58;;;3.40;74.00;;;;;;5097422;28;20449;-72
2022/01/21 12:11:37;;;;;;;20.63;5.00;;;3.50;73.70;;;;;;5089779;28;20179;-72
2022/01/21 12:14:27;;;;;;;6.45;3.72;;;3.50;73.50;;;;;;5095835;28;20173;-72
2022/01/21 12:16:59;;;;;;;13.87;4.10;;;3.60;73.60;;;;;;5095881;28;20270;-72
2022/01/21 12:19:34;;;;;;;9.32;3.17;;;3.70;73.60;;;;;;5096503;28;20428;-72
2022/01/21 12:22:15;;;;;;;10.85;4.32;;;3.60;73.20;;;;;;5095891;28;20163;-72
2022/01/21 12:24:51;;;;;;;10.13;4.10;;;3.40;73.70;;;;;;5103370;28;20194;-72
2022/01/21 12:27:18;;;;;;;13.70;3.67;;;3.50;74.50;;;;;;5098285;28;20194;-72
2022/01/21 12:29:44;;;;;;;12.63;3.37;;;3.50;74.50;;;;;;5099658;28;20175;-73
2022/01/21 12:32:29;;;;;;;6.83;3.40;;;3.40;74.20;;;;;;5098047;28;20436;-72
2022/01/21 12:34:58;;;;;;;13.10;3.97;;;3.40;74.90;;;;;;5095012;28;20173;-72
2022/01/21 12:37:37;;;;;;;7.10;3.07;;;3.50;75.20;;;;;;5101039;28;20236;-71
2022/01/21 12:40:03;;;;;;;14.07;3.75;;;3.60;74.50;;;;;;5094318;28;20482;-71
2022/01/21 12:42:37;;;;;;;10.98;3.60;;;3.80;74.60;;;;;;5093784;28;20261;-73
2022/01/21 12:45:08;;;;;;;9.05;4.60;;;3.80;74.20;;;;;;5093571;28;20197;-73
2022/01/21 12:47:40;;;;;;;14.35;3.70;;;3.70;74.30;;;;;;5092284;28;20256;-72
2022/01/21 12:50:32;;;;;;;15.05;4.28;;;3.70;74.80;;;;;;5092858;28;20183;-71
2022/01/21 12:55:55;;;;;;;11.00;4.68;;;3.70;75.10;;;;;;5092159;28;20237;-72
2022/01/21 12:58:38;;;;;;;12.00;3.50;;;3.70;75.50;;;;;;5087933;28;20186;-72
2022/01/21 13:01:10;;;;;;;9.00;4.10;;;3.50;76.20;;;;;;5092563;28;20256;-73
2022/01/21 13:03:48;;;;;;;10.77;4.13;;;3.40;76.80;;;;;;5092388;28;20171;-71
2022/01/21 13:06:20;;;;;;;7.32;4.03;;;3.50;77.00;;;;;;5092211;28;20559;-71
2022/01/21 13:08:52;;;;;;;14.48;3.92;;;3.50;76.80;;;;;;5092198;28;20186;-72
2022/01/21 13:11:23;;;;;;;9.82;4.20;;;3.50;76.80;;;;;;5083203;28;20179;-71
2022/01/21 13:17:05;;;;;;;11.07;3.35;;;3.50;77.00;;;;;;5090451;28;20307;-71
2022/01/21 13:19:45;;;;;;;9.82;3.75;;;3.60;76.70;;;;;;5086724;28;20266;-71
2022/01/21 13:22:19;;;;;;;8.68;3.00;;;3.50;76.80;;;;;;5090558;28;20183;-71
2022/01/21 13:25:07;;;;;;;13.23;2.75;;;3.50;77.10;;;;;;5086483;28;20214;-70
2022/01/21 13:27:35;;;;;;;12.57;3.03;;;3.50;76.80;;;;;;5085076;28;20247;-71
2022/01/21 13:30:06;;;;;;;7.50;2.90;;;3.60;77.10;;;;;;5090386;28;20183;-72
2022/01/21 13:32:32;;;;;;;9.68;3.90;;;3.70;77.10;;;;;;5089688;28;20282;-70
2022/01/21 13:35:12;;;;;;;5.40;3.00;;;3.70;76.70;;;;;;5089776;28;20342;-71
2022/01/21 13:37:39;;;;;;;11.73;3.58;;;3.70;76.40;;;;;;5088903;28;20359;-71
2022/01/21 13:40:08;;;;;;;12.27;3.40;;;3.60;76.70;;;;;;5088946;28;20248;-72
2022/01/21 13:42:35;;;;;;;5.20;2.97;;;3.60;77.00;;;;;;5091342;28;20452;-71
2022/01/21 13:45:08;;;;;;;14.53;3.20;;;3.70;77.10;;;;;;5088777;28;20469;-72
2022/01/21 13:47:40;;;;;;;8.83;3.10;;;3.80;76.50;;;;;;5091215;28;20429;-72
2022/01/21 13:50:06;;;;;;;10.95;3.20;;;3.80;75.90;;;;;;5091531;28;20420;-72
2022/01/21 13:52:38;;;;;;;6.35;3.35;;;3.70;76.20;;;;;;5091047;28;20179;-72
2022/01/21 13:55:05;;;;;;;6.37;3.10;;;3.70;76.80;;;;;;5089257;28;20191;-72
2022/01/21 13:57:31;;;;;;;10.57;3.17;;;3.80;77.10;;;;;;5090579;28;20488;-71